createdAt,value
2018-10-01T00:00:06.773Z,0.00
2018-10-01T00:01:06.691Z,0.00
2018-10-01T00:02:06.611Z,0.00
2018-10-01T00:03:06.529Z,0.00
2018-10-01T00:04:06.455Z,0.00
2018-10-01T00:05:06.378Z,0.00
2018-10-01T00:06:06.299Z,0.00
2018-10-01T00:07:06.223Z,0.00
2018-10-01T00:08:06.146Z,0.00
2018-10-01T00:09:06.068Z,0.00
2018-10-01T00:10:05.990Z,0.00
2018-10-01T00:11:05.921Z,0.00
2018-10-01T00:12:05.842Z,0.00
2018-10-01T00:13:05.760Z,0.00
2018-10-01T00:14:05.678Z,0.00
2018-10-01T00:15:05.607Z,0.00
2018-10-01T00:16:05.528Z,0.00
2018-10-01T00:17:05.447Z,0.00
2018-10-01T00:18:05.370Z,0.00
2018-10-01T00:19:05.291Z,0.00
2018-10-01T00:20:05.219Z,0.00
2018-10-01T00:21:05.136Z,0.00
2018-10-01T00:22:05.059Z,0.00
2018-10-01T00:23:04.981Z,0.00
2018-10-01T00:24:04.903Z,0.00
2018-10-01T00:25:04.825Z,0.00
2018-10-01T00:26:04.750Z,0.00
2018-10-01T00:27:04.670Z,0.00
2018-10-01T00:28:04.594Z,0.00
2018-10-01T00:29:04.521Z,0.00
2018-10-01T00:30:04.436Z,0.00
2018-10-01T00:31:04.360Z,0.00
2018-10-01T00:32:04.286Z,0.00
2018-10-01T00:33:04.204Z,0.00
2018-10-01T00:34:04.127Z,0.00
2018-10-01T00:35:04.051Z,0.00
2018-10-01T00:36:03.973Z,0.00
2018-10-01T00:37:03.901Z,0.00
2018-10-01T00:38:03.816Z,0.00
2018-10-01T00:39:03.736Z,0.00
2018-10-01T00:40:03.659Z,0.00
2018-10-01T00:41:03.578Z,0.00
2018-10-01T00:42:03.505Z,0.00
2018-10-01T00:43:03.429Z,0.00
2018-10-01T00:44:03.348Z,0.00
2018-10-01T00:45:03.271Z,0.00
2018-10-01T00:46:03.201Z,0.00
2018-10-01T00:47:03.116Z,0.00
2018-10-01T00:48:03.038Z,0.00
2018-10-01T00:49:02.968Z,0.00
2018-10-01T00:50:02.882Z,0.00
2018-10-01T00:51:02.804Z,0.00
2018-10-01T00:52:02.732Z,0.00
2018-10-01T00:53:02.649Z,0.00
2018-10-01T00:54:02.577Z,0.00
2018-10-01T00:55:02.495Z,0.00
2018-10-01T00:56:02.417Z,0.00
2018-10-01T00:57:02.337Z,0.00
2018-10-01T00:58:02.262Z,0.00
2018-10-01T00:59:02.179Z,0.00
2018-10-01T01:00:02.107Z,0.00
2018-10-01T01:01:02.028Z,0.00
2018-10-01T01:02:01.949Z,0.00
2018-10-01T01:03:01.877Z,0.00
2018-10-01T01:04:01.793Z,0.00
2018-10-01T01:05:01.716Z,0.00
2018-10-01T01:06:01.637Z,0.00
2018-10-01T01:07:01.560Z,0.00
2018-10-01T01:08:01.481Z,0.00
2018-10-01T01:09:01.407Z,0.00
2018-10-01T01:10:01.332Z,0.00
2018-10-01T01:11:01.246Z,0.00
2018-10-01T01:12:01.170Z,0.00
2018-10-01T01:13:01.096Z,0.00
2018-10-01T01:14:01.012Z,0.00
2018-10-01T01:15:00.937Z,0.00
2018-10-01T01:16:00.859Z,0.00
2018-10-01T01:17:00.782Z,0.00
2018-10-01T01:18:00.702Z,0.00
2018-10-01T01:19:00.625Z,0.00
2018-10-01T01:20:00.547Z,0.00
2018-10-01T01:21:00.469Z,0.00
2018-10-01T01:22:00.389Z,0.00
2018-10-01T01:23:00.309Z,0.00
2018-10-01T01:24:00.236Z,0.00
2018-10-01T01:25:00.156Z,0.00
2018-10-01T01:26:00.083Z,0.00
2018-10-01T01:27:00.001Z,0.00
2018-10-01T01:27:59.924Z,0.00
2018-10-01T01:28:59.849Z,0.00
2018-10-01T01:29:59.769Z,0.00
2018-10-01T01:30:59.689Z,0.00
2018-10-01T01:31:59.611Z,0.00
2018-10-01T01:32:59.539Z,0.00
2018-10-01T01:33:59.461Z,0.00
2018-10-01T01:34:59.379Z,0.00
2018-10-01T01:35:59.303Z,0.00
2018-10-01T01:36:59.224Z,0.00
2018-10-01T01:37:59.149Z,0.00
2018-10-01T01:38:59.067Z,0.00
2018-10-01T01:39:58.991Z,0.00
2018-10-01T01:40:58.913Z,0.00
2018-10-01T01:41:58.836Z,0.00
2018-10-01T01:42:58.760Z,0.00
2018-10-01T01:43:58.681Z,0.00
2018-10-01T01:44:58.603Z,0.00
2018-10-01T01:45:58.527Z,0.00
2018-10-01T01:46:58.447Z,0.00
2018-10-01T01:47:58.369Z,0.00
2018-10-01T01:48:58.288Z,0.00
2018-10-01T01:49:58.228Z,0.00
2018-10-01T01:50:58.140Z,0.00
2018-10-01T01:51:58.060Z,0.00
2018-10-01T01:52:57.982Z,0.00
2018-10-01T01:53:57.903Z,0.00
2018-10-01T01:54:57.826Z,0.00
2018-10-01T01:55:57.749Z,0.00
2018-10-01T01:56:57.673Z,0.00
2018-10-01T01:57:57.593Z,0.00
2018-10-01T01:58:57.516Z,0.00
2018-10-01T01:59:57.468Z,0.00
2018-10-01T02:00:57.363Z,0.00
2018-10-01T02:01:57.282Z,0.00
2018-10-01T02:02:57.240Z,0.00
2018-10-01T02:03:57.145Z,0.00
2018-10-01T02:04:57.063Z,0.00
2018-10-01T02:05:56.979Z,0.00
2018-10-01T02:06:56.895Z,0.00
2018-10-01T02:07:56.819Z,0.00
2018-10-01T02:08:56.742Z,0.00
2018-10-01T02:09:56.663Z,0.00
2018-10-01T02:10:56.592Z,0.00
2018-10-01T02:11:56.507Z,0.00
2018-10-01T02:12:56.434Z,0.00
2018-10-01T02:13:56.357Z,0.00
2018-10-01T02:14:56.276Z,0.00
2018-10-01T02:15:56.199Z,0.00
2018-10-01T02:16:56.121Z,0.00
2018-10-01T02:17:56.044Z,0.00
2018-10-01T02:18:55.967Z,0.00
2018-10-01T02:19:55.890Z,0.00
2018-10-01T02:20:55.810Z,0.00
2018-10-01T02:21:55.731Z,0.00
2018-10-01T02:22:55.657Z,0.00
2018-10-01T02:23:55.578Z,0.00
2018-10-01T02:24:55.501Z,0.00
2018-10-01T02:25:55.421Z,0.00
2018-10-01T02:26:55.345Z,0.00
2018-10-01T02:27:55.269Z,0.00
2018-10-01T02:28:55.192Z,0.00
2018-10-01T02:29:55.113Z,0.00
2018-10-01T02:30:55.032Z,0.00
2018-10-01T02:31:54.961Z,0.00
2018-10-01T02:32:54.882Z,0.00
2018-10-01T02:33:54.805Z,0.00
2018-10-01T02:34:54.728Z,0.00
2018-10-01T02:35:54.656Z,0.00
2018-10-01T02:36:54.589Z,0.00
2018-10-01T02:37:54.497Z,0.00
2018-10-01T02:38:54.422Z,0.00
2018-10-01T02:39:54.339Z,0.00
2018-10-01T02:40:54.267Z,0.00
2018-10-01T02:41:54.185Z,0.00
2018-10-01T02:42:54.108Z,0.00
2018-10-01T02:43:54.030Z,0.00
2018-10-01T02:44:53.952Z,0.00
2018-10-01T02:45:53.874Z,0.00
2018-10-01T02:46:53.797Z,0.00
2018-10-01T02:47:53.829Z,0.00
2018-10-01T02:48:53.644Z,0.00
2018-10-01T02:49:53.565Z,0.00
2018-10-01T02:50:53.488Z,0.00
2018-10-01T02:51:53.410Z,0.00
2018-10-01T02:52:53.337Z,0.00
2018-10-01T02:53:53.257Z,0.00
2018-10-01T02:54:53.179Z,0.00
2018-10-01T02:55:53.101Z,0.00
2018-10-01T02:56:53.023Z,0.00
2018-10-01T02:57:52.947Z,0.00
2018-10-01T02:58:52.869Z,0.00
2018-10-01T02:59:52.799Z,0.00
2018-10-01T03:00:52.715Z,0.00
2018-10-01T03:01:52.636Z,0.00
2018-10-01T03:02:52.560Z,0.00
2018-10-01T03:03:52.483Z,0.00
2018-10-01T03:04:52.406Z,0.00
2018-10-01T03:05:52.327Z,0.00
2018-10-01T03:06:52.250Z,0.00
2018-10-01T03:07:52.175Z,0.00
2018-10-01T03:08:52.139Z,0.00
2018-10-01T03:09:52.019Z,0.00
2018-10-01T03:10:51.942Z,0.00
2018-10-01T03:11:51.863Z,0.00
2018-10-01T03:12:51.784Z,0.00
2018-10-01T03:13:51.711Z,0.00
2018-10-01T03:14:51.632Z,0.00
2018-10-01T03:15:51.554Z,0.00
2018-10-01T03:16:51.481Z,0.00
2018-10-01T03:17:51.401Z,0.00
2018-10-01T03:18:51.321Z,0.00
2018-10-01T03:19:51.248Z,0.00
2018-10-01T03:20:51.167Z,0.00
2018-10-01T03:21:51.091Z,0.00
2018-10-01T03:22:51.015Z,0.00
2018-10-01T03:23:50.936Z,0.00
2018-10-01T03:24:50.868Z,0.00
2018-10-01T03:25:50.781Z,0.00
2018-10-01T03:26:50.714Z,0.00
2018-10-01T03:27:50.628Z,0.00
2018-10-01T03:28:50.552Z,0.00
2018-10-01T03:29:50.473Z,0.00
2018-10-01T03:30:50.394Z,0.00
2018-10-01T03:31:50.318Z,0.00
2018-10-01T03:32:50.243Z,0.00
2018-10-01T03:33:50.164Z,0.00
2018-10-01T03:34:50.086Z,0.00
2018-10-01T03:35:50.011Z,0.00
2018-10-01T03:36:49.932Z,0.00
2018-10-01T03:37:49.854Z,0.00
2018-10-01T03:38:49.779Z,0.00
2018-10-01T03:39:49.703Z,0.00
2018-10-01T03:40:49.626Z,0.00
2018-10-01T03:41:49.546Z,0.00
2018-10-01T03:42:49.474Z,0.00
2018-10-01T03:43:49.400Z,0.00
2018-10-01T03:44:49.313Z,0.00
2018-10-01T03:45:49.238Z,0.00
2018-10-01T03:46:49.162Z,0.00
2018-10-01T03:47:49.085Z,0.00
2018-10-01T03:48:49.009Z,0.00
2018-10-01T03:49:48.930Z,0.00
2018-10-01T03:50:48.853Z,0.00
2018-10-01T03:51:48.777Z,0.00
2018-10-01T03:52:48.702Z,0.00
2018-10-01T03:53:48.624Z,0.00
2018-10-01T03:54:48.548Z,0.00
2018-10-01T03:55:48.468Z,0.00
2018-10-01T03:56:48.397Z,0.00
2018-10-01T03:57:48.314Z,0.00
2018-10-01T03:58:48.240Z,0.00
2018-10-01T03:59:48.156Z,0.00
2018-10-01T04:00:48.088Z,0.00
2018-10-01T04:01:48.006Z,0.00
2018-10-01T04:02:47.980Z,0.00
2018-10-01T04:03:47.854Z,0.00
2018-10-01T04:04:47.779Z,0.00
2018-10-01T04:05:47.704Z,0.00
2018-10-01T04:06:47.627Z,0.00
2018-10-01T04:07:47.553Z,0.00
2018-10-01T04:08:47.519Z,0.00
2018-10-01T04:09:47.393Z,0.00
2018-10-01T04:10:47.317Z,0.00
2018-10-01T04:11:47.238Z,0.00
2018-10-01T04:12:47.162Z,0.00
2018-10-01T04:13:47.085Z,0.00
2018-10-01T04:14:47.009Z,0.00
2018-10-01T04:15:46.932Z,0.00
2018-10-01T04:16:46.853Z,0.00
2018-10-01T04:17:46.779Z,0.00
2018-10-01T04:18:46.702Z,0.00
2018-10-01T04:19:46.627Z,0.00
2018-10-01T04:20:46.549Z,0.00
2018-10-01T04:21:46.468Z,0.00
2018-10-01T04:22:46.436Z,0.00
2018-10-01T04:23:46.317Z,0.00
2018-10-01T04:24:46.239Z,0.00
2018-10-01T04:25:46.162Z,0.00
2018-10-01T04:26:46.085Z,0.00
2018-10-01T04:27:46.019Z,0.00
2018-10-01T04:28:45.946Z,0.00
2018-10-01T04:29:45.895Z,0.00
2018-10-01T04:30:45.856Z,0.00
2018-10-01T04:31:45.699Z,0.00
2018-10-01T04:32:45.624Z,0.00
2018-10-01T04:33:45.547Z,0.00
2018-10-01T04:34:45.469Z,0.00
2018-10-01T04:35:45.402Z,0.00
2018-10-01T04:36:45.318Z,0.00
2018-10-01T04:37:45.239Z,0.00
2018-10-01T04:38:45.164Z,0.00
2018-10-01T04:39:45.084Z,0.00
2018-10-01T04:40:45.063Z,0.00
2018-10-01T04:41:44.934Z,0.00
2018-10-01T04:42:44.854Z,0.00
2018-10-01T04:43:44.777Z,0.00
2018-10-01T04:44:44.702Z,0.00
2018-10-01T04:45:44.628Z,0.00
2018-10-01T04:46:44.604Z,0.00
2018-10-01T04:47:44.466Z,0.00
2018-10-01T04:48:44.394Z,0.00
2018-10-01T04:49:44.313Z,0.00
2018-10-01T04:50:44.237Z,0.00
2018-10-01T04:51:44.160Z,0.00
2018-10-01T04:52:44.084Z,0.00
2018-10-01T04:53:44.004Z,0.00
2018-10-01T04:54:43.926Z,0.00
2018-10-01T04:55:43.856Z,0.00
2018-10-01T04:56:43.776Z,0.00
2018-10-01T04:57:43.696Z,0.00
2018-10-01T04:58:43.616Z,0.00
2018-10-01T04:59:43.542Z,0.00
2018-10-01T05:00:43.464Z,0.00
2018-10-01T05:01:43.390Z,0.00
2018-10-01T05:02:43.311Z,0.00
2018-10-01T05:03:43.234Z,0.00
2018-10-01T05:04:43.157Z,0.00
2018-10-01T05:05:43.077Z,0.00
2018-10-01T05:06:43.000Z,0.00
2018-10-01T05:07:42.921Z,0.00
2018-10-01T05:08:42.848Z,0.00
2018-10-01T05:09:42.771Z,0.00
2018-10-01T05:10:42.694Z,0.00
2018-10-01T05:11:42.616Z,0.00
2018-10-01T05:12:42.540Z,0.00
2018-10-01T05:13:42.463Z,0.00
2018-10-01T05:14:42.579Z,0.00
2018-10-01T05:15:42.306Z,0.00
2018-10-01T05:16:42.239Z,0.00
2018-10-01T05:17:42.154Z,0.00
2018-10-01T05:18:42.074Z,0.00
2018-10-01T05:19:41.999Z,0.00
2018-10-01T05:20:41.922Z,0.00
2018-10-01T05:21:41.845Z,0.00
2018-10-01T05:22:41.768Z,0.00
2018-10-01T05:23:41.690Z,0.00
2018-10-01T05:24:41.614Z,0.00
2018-10-01T05:25:41.537Z,0.00
2018-10-01T05:26:41.462Z,0.00
2018-10-01T05:27:41.384Z,0.00
2018-10-01T05:28:41.317Z,0.00
2018-10-01T05:29:41.228Z,0.00
2018-10-01T05:30:41.153Z,0.00
2018-10-01T05:31:41.076Z,0.00
2018-10-01T05:32:40.997Z,0.00
2018-10-01T05:33:40.926Z,0.00
2018-10-01T05:34:40.845Z,0.00
2018-10-01T05:35:40.766Z,0.00
2018-10-01T05:36:40.696Z,0.00
2018-10-01T05:37:40.664Z,0.00
2018-10-01T05:38:40.538Z,5.63
2018-10-01T05:39:40.462Z,5.63
2018-10-01T05:40:40.386Z,5.63
2018-10-01T05:41:40.308Z,5.63
2018-10-01T05:42:40.232Z,5.63
2018-10-01T05:43:40.159Z,5.63
2018-10-01T05:44:40.083Z,5.63
2018-10-01T05:45:40.004Z,5.63
2018-10-01T05:46:39.925Z,5.63
2018-10-01T05:47:39.848Z,5.63
2018-10-01T05:48:39.773Z,5.63
2018-10-01T05:49:39.699Z,5.63
2018-10-01T05:50:39.618Z,5.63
2018-10-01T05:51:39.540Z,5.63
2018-10-01T05:52:39.471Z,5.63
2018-10-01T05:53:39.397Z,5.63
2018-10-01T05:54:39.315Z,11.25
2018-10-01T05:55:39.235Z,11.25
2018-10-01T05:56:39.161Z,11.25
2018-10-01T05:57:39.137Z,5.63
2018-10-01T05:58:39.007Z,5.63
2018-10-01T05:59:38.935Z,5.63
2018-10-01T06:00:38.857Z,5.63
2018-10-01T06:01:38.779Z,5.63
2018-10-01T06:02:38.703Z,5.63
2018-10-01T06:03:38.626Z,11.25
2018-10-01T06:04:38.612Z,11.25
2018-10-01T06:05:38.473Z,16.88
2018-10-01T06:06:38.396Z,16.88
2018-10-01T06:07:38.324Z,16.88
2018-10-01T06:08:38.245Z,16.88
2018-10-01T06:09:38.172Z,16.88
2018-10-01T06:10:38.093Z,16.88
2018-10-01T06:11:38.015Z,16.88
2018-10-01T06:12:37.939Z,22.50
2018-10-01T06:13:37.860Z,22.50
2018-10-01T06:14:37.787Z,22.50
2018-10-01T06:15:37.710Z,16.88
2018-10-01T06:16:37.632Z,16.88
2018-10-01T06:17:37.556Z,22.50
2018-10-01T06:18:37.479Z,22.50
2018-10-01T06:19:37.405Z,22.50
2018-10-01T06:20:37.328Z,28.13
2018-10-01T06:21:37.253Z,28.13
2018-10-01T06:22:37.174Z,28.13
2018-10-01T06:23:37.098Z,28.13
2018-10-01T06:24:37.028Z,28.13
2018-10-01T06:25:36.946Z,28.13
2018-10-01T06:26:36.869Z,28.13
2018-10-01T06:27:36.794Z,28.13
2018-10-01T06:28:36.718Z,28.13
2018-10-01T06:29:36.644Z,28.13
2018-10-01T06:30:36.564Z,28.13
2018-10-01T06:31:36.490Z,33.75
2018-10-01T06:32:36.409Z,33.75
2018-10-01T06:33:36.336Z,33.75
2018-10-01T06:34:36.260Z,39.38
2018-10-01T06:35:36.184Z,39.38
2018-10-01T06:36:36.106Z,39.38
2018-10-01T06:37:36.028Z,39.38
2018-10-01T06:38:35.955Z,39.38
2018-10-01T06:39:35.882Z,45.00
2018-10-01T06:40:35.804Z,45.00
2018-10-01T06:41:35.841Z,50.63
2018-10-01T06:42:35.652Z,50.63
2018-10-01T06:43:35.575Z,56.25
2018-10-01T06:44:35.506Z,67.50
2018-10-01T06:45:35.421Z,61.88
2018-10-01T06:46:35.345Z,61.88
2018-10-01T06:47:35.267Z,61.88
2018-10-01T06:48:35.191Z,61.88
2018-10-01T06:49:35.119Z,61.88
2018-10-01T06:50:35.040Z,67.50
2018-10-01T06:51:34.966Z,73.13
2018-10-01T06:52:34.888Z,73.13
2018-10-01T06:53:34.811Z,78.75
2018-10-01T06:54:34.730Z,78.75
2018-10-01T06:55:34.673Z,84.38
2018-10-01T06:56:34.583Z,84.38
2018-10-01T06:57:34.505Z,90.00
2018-10-01T06:58:34.432Z,84.38
2018-10-01T06:59:34.355Z,84.38
2018-10-01T07:00:34.278Z,90.00
2018-10-01T07:01:34.203Z,90.00
2018-10-01T07:02:34.127Z,90.00
2018-10-01T07:03:34.052Z,95.63
2018-10-01T07:04:33.975Z,90.00
2018-10-01T07:05:33.989Z,84.38
2018-10-01T07:06:33.822Z,84.38
2018-10-01T07:07:33.768Z,84.38
2018-10-01T07:08:33.691Z,84.38
2018-10-01T07:09:33.600Z,84.38
2018-10-01T07:10:33.525Z,84.38
2018-10-01T07:11:33.569Z,78.75
2018-10-01T07:12:33.368Z,61.88
2018-10-01T07:13:33.296Z,50.63
2018-10-01T07:14:33.215Z,45.00
2018-10-01T07:15:33.139Z,50.63
2018-10-01T07:16:33.127Z,56.25
2018-10-01T07:17:32.989Z,56.25
2018-10-01T07:18:32.912Z,56.25
2018-10-01T07:19:32.834Z,56.25
2018-10-01T07:20:32.760Z,67.50
2018-10-01T07:21:32.684Z,67.50
2018-10-01T07:22:32.623Z,67.50
2018-10-01T07:23:32.533Z,73.13
2018-10-01T07:24:32.457Z,78.75
2018-10-01T07:25:32.384Z,84.38
2018-10-01T07:26:32.303Z,78.75
2018-10-01T07:27:32.229Z,78.75
2018-10-01T07:28:32.149Z,90.00
2018-10-01T07:29:32.076Z,78.75
2018-10-01T07:30:32.003Z,84.38
2018-10-01T07:31:31.924Z,84.38
2018-10-01T07:32:31.848Z,84.38
2018-10-01T07:33:31.772Z,78.75
2018-10-01T07:34:31.699Z,78.75
2018-10-01T07:35:31.621Z,73.13
2018-10-01T07:36:31.545Z,67.50
2018-10-01T07:37:31.469Z,73.13
2018-10-01T07:38:31.395Z,84.38
2018-10-01T07:39:31.319Z,84.38
2018-10-01T07:40:31.242Z,78.75
2018-10-01T07:41:31.168Z,78.75
2018-10-01T07:42:31.097Z,78.75
2018-10-01T07:43:31.014Z,73.13
2018-10-01T07:44:30.941Z,78.75
2018-10-01T07:45:30.867Z,84.38
2018-10-01T07:46:30.796Z,84.38
2018-10-01T07:47:30.711Z,78.75
2018-10-01T07:48:30.635Z,84.38
2018-10-01T07:49:30.573Z,84.38
2018-10-01T07:50:30.549Z,78.75
2018-10-01T07:51:30.408Z,73.13
2018-10-01T07:52:30.336Z,84.38
2018-10-01T07:53:30.334Z,84.38
2018-10-01T07:54:30.180Z,67.50
2018-10-01T07:55:30.105Z,61.88
2018-10-01T07:56:30.031Z,73.13
2018-10-01T07:57:30.063Z,84.38
2018-10-01T07:58:29.876Z,90.00
2018-10-01T07:59:29.842Z,78.75
2018-10-01T08:00:29.830Z,67.50
2018-10-01T08:01:29.654Z,73.13
2018-10-01T08:02:29.582Z,78.75
2018-10-01T08:03:29.499Z,112.50
2018-10-01T08:04:29.423Z,84.38
2018-10-01T08:05:29.353Z,90.00
2018-10-01T08:06:29.274Z,78.75
2018-10-01T08:07:29.195Z,90.00
2018-10-01T08:08:29.133Z,84.38
2018-10-01T08:09:29.108Z,106.88
2018-10-01T08:10:29.004Z,129.38
2018-10-01T08:11:28.907Z,157.50
2018-10-01T08:12:28.820Z,151.88
2018-10-01T08:13:28.742Z,135.00
2018-10-01T08:14:28.724Z,140.63
2018-10-01T08:15:28.591Z,129.38
2018-10-01T08:16:28.514Z,101.25
2018-10-01T08:17:28.437Z,106.88
2018-10-01T08:18:28.363Z,123.75
2018-10-01T08:19:28.287Z,168.75
2018-10-01T08:20:28.233Z,163.13
2018-10-01T08:21:28.136Z,123.75
2018-10-01T08:22:28.060Z,101.25
2018-10-01T08:23:27.999Z,146.25
2018-10-01T08:24:27.930Z,112.50
2018-10-01T08:25:27.835Z,129.38
2018-10-01T08:26:27.776Z,140.63
2018-10-01T08:27:27.683Z,140.63
2018-10-01T08:28:27.609Z,168.75
2018-10-01T08:29:27.628Z,129.38
2018-10-01T08:30:27.460Z,168.75
2018-10-01T08:31:27.381Z,247.50
2018-10-01T08:32:27.394Z,225.00
2018-10-01T08:33:27.231Z,174.38
2018-10-01T08:34:27.156Z,163.13
2018-10-01T08:35:27.085Z,163.13
2018-10-01T08:36:27.009Z,123.75
2018-10-01T08:37:26.933Z,118.13
2018-10-01T08:38:26.897Z,135.00
2018-10-01T08:39:26.778Z,118.13
2018-10-01T08:40:26.707Z,101.25
2018-10-01T08:41:26.650Z,106.88
2018-10-01T08:42:26.556Z,118.13
2018-10-01T08:43:26.480Z,129.38
2018-10-01T08:44:26.496Z,146.25
2018-10-01T08:45:26.331Z,112.50
2018-10-01T08:46:26.255Z,157.50
2018-10-01T08:47:26.190Z,151.88
2018-10-01T08:48:26.106Z,196.88
2018-10-01T08:49:26.029Z,202.50
2018-10-01T08:50:25.975Z,258.75
2018-10-01T08:51:25.883Z,303.75
2018-10-01T08:52:25.806Z,247.50
2018-10-01T08:53:25.741Z,315.00
2018-10-01T08:54:25.663Z,230.63
2018-10-01T08:55:25.577Z,191.25
2018-10-01T08:56:25.571Z,196.88
2018-10-01T08:57:25.436Z,163.13
2018-10-01T08:58:25.357Z,140.63
2018-10-01T08:59:25.324Z,140.63
2018-10-01T09:00:25.208Z,180.00
2018-10-01T09:01:25.134Z,168.75
2018-10-01T09:02:25.112Z,140.63
2018-10-01T09:03:24.990Z,129.38
2018-10-01T09:04:24.921Z,196.88
2018-10-01T09:05:24.853Z,191.25
2018-10-01T09:06:24.760Z,123.75
2018-10-01T09:07:24.688Z,185.63
2018-10-01T09:08:24.632Z,90.00
2018-10-01T09:09:24.539Z,90.00
2018-10-01T09:10:24.463Z,90.00
2018-10-01T09:11:24.416Z,101.25
2018-10-01T09:12:24.314Z,202.50
2018-10-01T09:13:24.238Z,236.25
2018-10-01T09:14:24.167Z,281.25
2018-10-01T09:15:24.095Z,264.38
2018-10-01T09:16:24.018Z,253.13
2018-10-01T09:17:23.977Z,281.25
2018-10-01T09:18:23.869Z,337.50
2018-10-01T09:19:23.794Z,275.63
2018-10-01T09:20:23.725Z,213.75
2018-10-01T09:21:23.825Z,202.50
2018-10-01T09:22:23.572Z,253.13
2018-10-01T09:23:23.502Z,258.75
2018-10-01T09:24:23.423Z,270.00
2018-10-01T09:25:23.357Z,213.75
2018-10-01T09:26:23.280Z,196.88
2018-10-01T09:27:23.201Z,208.13
2018-10-01T09:28:23.128Z,191.25
2018-10-01T09:29:23.137Z,180.00
2018-10-01T09:30:22.981Z,151.88
2018-10-01T09:31:22.908Z,219.38
2018-10-01T09:32:22.836Z,174.38
2018-10-01T09:33:22.759Z,163.13
2018-10-01T09:34:22.686Z,129.38
2018-10-01T09:35:22.650Z,123.75
2018-10-01T09:36:22.539Z,151.88
2018-10-01T09:37:22.464Z,157.50
2018-10-01T09:38:22.403Z,146.25
2018-10-01T09:39:22.321Z,123.75
2018-10-01T09:40:22.276Z,202.50
2018-10-01T09:41:22.169Z,90.00
2018-10-01T09:42:22.095Z,106.88
2018-10-01T09:43:22.035Z,230.63
2018-10-01T09:44:22.018Z,348.75
2018-10-01T09:45:21.887Z,388.13
2018-10-01T09:46:21.812Z,393.75
2018-10-01T09:47:21.733Z,337.50
2018-10-01T09:48:21.654Z,247.50
2018-10-01T09:49:21.580Z,219.38
2018-10-01T09:50:21.564Z,219.38
2018-10-01T09:51:21.435Z,196.88
2018-10-01T09:52:21.359Z,157.50
2018-10-01T09:53:21.287Z,112.50
2018-10-01T09:54:21.213Z,90.00
2018-10-01T09:55:21.141Z,90.00
2018-10-01T09:56:21.076Z,84.38
2018-10-01T09:57:20.996Z,101.25
2018-10-01T09:58:20.987Z,163.13
2018-10-01T09:59:20.851Z,208.13
2018-10-01T10:00:20.779Z,168.75
2018-10-01T10:01:20.697Z,118.13
2018-10-01T10:02:20.695Z,106.88
2018-10-01T10:03:20.552Z,106.88
2018-10-01T10:04:20.540Z,106.88
2018-10-01T10:05:20.404Z,123.75
2018-10-01T10:06:20.332Z,151.88
2018-10-01T10:07:20.259Z,140.63
2018-10-01T10:08:20.202Z,129.38
2018-10-01T10:09:20.111Z,101.25
2018-10-01T10:10:20.095Z,101.25
2018-10-01T10:11:19.990Z,106.88
2018-10-01T10:12:19.890Z,112.50
2018-10-01T10:13:19.816Z,135.00
2018-10-01T10:14:19.748Z,151.88
2018-10-01T10:15:19.668Z,185.63
2018-10-01T10:16:19.755Z,258.75
2018-10-01T10:17:19.570Z,376.88
2018-10-01T10:18:19.451Z,376.88
2018-10-01T10:19:19.375Z,320.63
2018-10-01T10:20:19.303Z,258.75
2018-10-01T10:21:19.231Z,196.88
2018-10-01T10:22:19.167Z,146.25
2018-10-01T10:23:19.076Z,123.75
2018-10-01T10:24:19.003Z,112.50
2018-10-01T10:25:18.931Z,140.63
2018-10-01T10:26:18.866Z,208.13
2018-10-01T10:27:18.785Z,236.25
2018-10-01T10:28:18.722Z,236.25
2018-10-01T10:29:18.639Z,247.50
2018-10-01T10:30:18.562Z,270.00
2018-10-01T10:31:18.489Z,275.63
2018-10-01T10:32:18.425Z,253.13
2018-10-01T10:33:18.339Z,241.88
2018-10-01T10:34:18.312Z,236.25
2018-10-01T10:35:18.207Z,247.50
2018-10-01T10:36:18.118Z,236.25
2018-10-01T10:37:18.054Z,191.25
2018-10-01T10:38:18.008Z,140.63
2018-10-01T10:39:17.898Z,112.50
2018-10-01T10:40:17.827Z,101.25
2018-10-01T10:41:17.749Z,118.13
2018-10-01T10:42:17.683Z,140.63
2018-10-01T10:43:17.604Z,151.88
2018-10-01T10:44:17.597Z,151.88
2018-10-01T10:45:17.465Z,185.63
2018-10-01T10:46:17.382Z,219.38
2018-10-01T10:47:17.307Z,236.25
2018-10-01T10:48:17.236Z,281.25
2018-10-01T10:49:17.161Z,292.50
2018-10-01T10:50:17.156Z,275.63
2018-10-01T10:51:17.013Z,213.75
2018-10-01T10:52:16.940Z,151.88
2018-10-01T10:53:16.867Z,123.75
2018-10-01T10:54:16.792Z,135.00
2018-10-01T10:55:16.717Z,168.75
2018-10-01T10:56:16.739Z,247.50
2018-10-01T10:57:16.575Z,208.13
2018-10-01T10:58:16.498Z,236.25
2018-10-01T10:59:16.424Z,241.88
2018-10-01T11:00:16.349Z,213.75
2018-10-01T11:01:16.279Z,236.25
2018-10-01T11:02:16.304Z,253.13
2018-10-01T11:03:16.133Z,191.25
2018-10-01T11:04:16.057Z,135.00
2018-10-01T11:05:15.979Z,106.88
2018-10-01T11:06:15.908Z,101.25
2018-10-01T11:07:15.890Z,118.13
2018-10-01T11:08:15.822Z,151.88
2018-10-01T11:09:15.692Z,163.13
2018-10-01T11:10:15.611Z,140.63
2018-10-01T11:11:15.547Z,146.25
2018-10-01T11:12:15.480Z,129.38
2018-10-01T11:13:15.390Z,129.38
2018-10-01T11:14:15.591Z,129.38
2018-10-01T11:15:15.425Z,129.38
2018-10-01T11:16:15.178Z,123.75
2018-10-01T11:17:15.107Z,129.38
2018-10-01T11:18:15.068Z,140.63
2018-10-01T11:19:15.179Z,135.00
2018-10-01T11:20:14.921Z,129.38
2018-10-01T11:21:14.880Z,157.50
2018-10-01T11:22:14.744Z,174.38
2018-10-01T11:23:14.661Z,185.63
2018-10-01T11:24:14.584Z,225.00
2018-10-01T11:25:14.580Z,292.50
2018-10-01T11:26:14.454Z,371.25
2018-10-01T11:27:14.475Z,438.75
2018-10-01T11:28:14.310Z,421.88
2018-10-01T11:29:14.212Z,433.13
2018-10-01T11:30:14.147Z,371.25
2018-10-01T11:31:14.068Z,320.63
2018-10-01T11:32:13.995Z,281.25
2018-10-01T11:33:13.998Z,264.38
2018-10-01T11:34:13.878Z,309.38
2018-10-01T11:35:13.925Z,196.88
2018-10-01T11:36:13.699Z,185.63
2018-10-01T11:37:13.650Z,196.88
2018-10-01T11:38:13.553Z,219.38
2018-10-01T11:39:13.594Z,286.88
2018-10-01T11:40:13.407Z,292.50
2018-10-01T11:41:13.332Z,270.00
2018-10-01T11:42:13.270Z,247.50
2018-10-01T11:43:13.184Z,241.88
2018-10-01T11:44:13.113Z,241.88
2018-10-01T11:45:13.066Z,241.88
2018-10-01T11:46:12.965Z,258.75
2018-10-01T11:47:12.892Z,275.63
2018-10-01T11:48:12.817Z,253.13
2018-10-01T11:49:12.746Z,281.25
2018-10-01T11:50:12.670Z,348.75
2018-10-01T11:51:12.697Z,365.63
2018-10-01T11:52:12.536Z,298.13
2018-10-01T11:53:12.454Z,236.25
2018-10-01T11:54:12.434Z,196.88
2018-10-01T11:55:12.306Z,157.50
2018-10-01T11:56:12.235Z,123.75
2018-10-01T11:57:12.241Z,95.63
2018-10-01T11:58:12.117Z,78.75
2018-10-01T11:59:12.112Z,78.75
2018-10-01T12:00:11.937Z,84.38
2018-10-01T12:01:11.867Z,101.25
2018-10-01T12:02:11.795Z,101.25
2018-10-01T12:03:11.809Z,135.00
2018-10-01T12:04:11.726Z,180.00
2018-10-01T12:05:11.571Z,191.25
2018-10-01T12:06:11.498Z,208.13
2018-10-01T12:07:11.426Z,236.25
2018-10-01T12:08:11.348Z,348.75
2018-10-01T12:09:11.361Z,236.25
2018-10-01T12:10:11.268Z,225.00
2018-10-01T12:11:11.126Z,191.25
2018-10-01T12:12:11.054Z,118.13
2018-10-01T12:13:11.010Z,90.00
2018-10-01T12:14:10.900Z,78.75
2018-10-01T12:15:10.900Z,78.75
2018-10-01T12:16:10.790Z,84.38
2018-10-01T12:17:10.680Z,106.88
2018-10-01T12:18:10.599Z,135.00
2018-10-01T12:19:10.529Z,151.88
2018-10-01T12:20:10.449Z,174.38
2018-10-01T12:21:10.444Z,213.75
2018-10-01T12:22:10.371Z,309.38
2018-10-01T12:23:10.227Z,405.00
2018-10-01T12:24:10.149Z,376.88
2018-10-01T12:25:10.072Z,219.38
2018-10-01T12:26:09.997Z,106.88
2018-10-01T12:27:09.969Z,73.13
2018-10-01T12:28:09.846Z,50.63
2018-10-01T12:29:09.818Z,33.75
2018-10-01T12:30:09.695Z,22.50
2018-10-01T12:31:09.624Z,22.50
2018-10-01T12:32:09.551Z,16.88
2018-10-01T12:33:09.473Z,22.50
2018-10-01T12:34:09.394Z,50.63
2018-10-01T12:35:09.363Z,73.13
2018-10-01T12:36:09.246Z,112.50
2018-10-01T12:37:09.170Z,151.88
2018-10-01T12:38:09.104Z,174.38
2018-10-01T12:39:09.076Z,180.00
2018-10-01T12:40:08.942Z,196.88
2018-10-01T12:41:08.868Z,202.50
2018-10-01T12:42:08.798Z,213.75
2018-10-01T12:43:08.715Z,225.00
2018-10-01T12:44:08.637Z,230.63
2018-10-01T12:45:08.639Z,208.13
2018-10-01T12:46:08.487Z,202.50
2018-10-01T12:47:08.415Z,168.75
2018-10-01T12:48:08.336Z,146.25
2018-10-01T12:49:08.259Z,118.13
2018-10-01T12:50:08.189Z,95.63
2018-10-01T12:51:08.125Z,78.75
2018-10-01T12:52:08.033Z,73.13
2018-10-01T12:53:07.955Z,78.75
2018-10-01T12:54:07.881Z,90.00
2018-10-01T12:55:07.819Z,95.63